Flugplatzdaten

 

Name Verkehrslandeplatz Ganderkesee
ICAO-CODE EDWQ
Koordinaten 53.02.15 N / 08.30.22 E
Richtung 26 (262°) / 08 (082°)
Höhe über Grund 96 ft
Abmessung 835 m x 22 m
Belag Landebahn: ASPH
Rollwege: ASPH
Frequenzen Ganderkesee Info / QDM:  118.630 MHz (spätestens 5 min. vor Erreichen des Platzes)
Bremen Information: 119.825 MHz
Bremen Approach: 124.800 MHz
Im Flugplatzverkehr ist ständige Hörbereitschaft aufrechtzuerhalten.
Auf Segelflüge / Ultralights / Fallschirmspringen achten – insbesondere am Samstag / Sonntag / Feiertag.
Tower Tel +49 4222 80 546 10
METAR
(EDDW)
EDDW 171750Z 14008KT 110V170 CAVOK 25/12 Q1018 NOSIG (ohne Gewähr)
TAF
(EDDW)
TAF EDDW 171100Z 1712/1812 18005KT CAVOK BECMG 1717/1719 12004KT BECMG 1809/1811 19006KT (ohne Gewähr)
NOTAMs Keine aktiven NOTAMs.(ohne Gewähr)
Betriebszeiten 09:00 – 20:00 Uhr (automatisch berechnete Zeit – ohne Gewähr)

Sommer:
UTC+2 09:00 Uhr bis Sonnenuntergang + 30 Min. (max. 20:00 Uhr)

Winter:
UTC+1 09:00 Uhr bis Sonnenuntergang + 30 Min. (max. 20:00 Uhr)

Andere Zeiten PPR.
13:00 bis 15:00 Uhr Ab- und Anflüge nur für / von Überlandflügen.

Flugbetriebsstoffe siehe Preise / Gebühren
Platzrunde siehe Sichtflug
Hangars siehe Hangars
Betriebsarten Sichtflug (VFR)
Sichtflug bei Nacht (NVFR)
GAFOR 07
Luftfahrzeugarten Flugzeuge bis 5.700 kg MPW
Motorsegler
Segelflug (Schleppstart)
Ultraleicht-Flugzeuge
Freiballone PPR
Flugzeuge ab 5.700 kg PPR
Fallschirmspringer PPR